sensor_id;sensor_type;location;lat;lon;timestamp;P1;durP1;ratioP1;P2;durP2;ratioP2
15633;SDS011;14654;48.898;8.308;2024-03-17T00:01:12;3.57;;;2.50;;
15633;SDS011;14654;48.898;8.308;2024-03-17T00:03:38;2.50;;;2.30;;
15633;SDS011;14654;48.898;8.308;2024-03-17T00:06:03;3.00;;;2.13;;
15633;SDS011;14654;48.898;8.308;2024-03-17T00:08:29;2.43;;;2.23;;
15633;SDS011;14654;48.898;8.308;2024-03-17T00:10:55;2.97;;;2.43;;
15633;SDS011;14654;48.898;8.308;2024-03-17T00:13:20;2.60;;;2.40;;
15633;SDS011;14654;48.898;8.308;2024-03-17T00:15:49;2.70;;;2.50;;
15633;SDS011;14654;48.898;8.308;2024-03-17T00:18:15;2.57;;;2.37;;
15633;SDS011;14654;48.898;8.308;2024-03-17T00:20:41;2.60;;;2.40;;
15633;SDS011;14654;48.898;8.308;2024-03-17T00:23:06;2.90;;;2.67;;
15633;SDS011;14654;48.898;8.308;2024-03-17T00:25:33;2.80;;;2.60;;
15633;SDS011;14654;48.898;8.308;2024-03-17T00:28:01;3.67;;;2.87;;
15633;SDS011;14654;48.898;8.308;2024-03-17T00:30:27;2.70;;;2.50;;
15633;SDS011;14654;48.898;8.308;2024-03-17T00:32:53;2.90;;;2.70;;
15633;SDS011;14654;48.898;8.308;2024-03-17T00:35:18;3.77;;;2.77;;
15633;SDS011;14654;48.898;8.308;2024-03-17T00:37:47;3.27;;;2.70;;
15633;SDS011;14654;48.898;8.308;2024-03-17T00:40:13;4.13;;;3.03;;
15633;SDS011;14654;48.898;8.308;2024-03-17T00:42:39;3.40;;;3.10;;
15633;SDS011;14654;48.898;8.308;2024-03-17T00:45:04;2.97;;;2.70;;
15633;SDS011;14654;48.898;8.308;2024-03-17T00:47:31;2.73;;;2.33;;
15633;SDS011;14654;48.898;8.308;2024-03-17T00:49:56;2.67;;;2.17;;
15633;SDS011;14654;48.898;8.308;2024-03-17T00:52:22;2.70;;;2.50;;
15633;SDS011;14654;48.898;8.308;2024-03-17T00:54:47;2.43;;;2.23;;
15633;SDS011;14654;48.898;8.308;2024-03-17T00:57:13;2.60;;;2.40;;
15633;SDS011;14654;48.898;8.308;2024-03-17T00:59:39;2.80;;;2.00;;
15633;SDS011;14654;48.898;8.308;2024-03-17T01:02:04;2.43;;;2.23;;
15633;SDS011;14654;48.898;8.308;2024-03-17T01:04:29;2.40;;;2.20;;
15633;SDS011;14654;48.898;8.308;2024-03-17T01:06:58;2.00;;;1.80;;
15633;SDS011;14654;48.898;8.308;2024-03-17T01:09:24;3.00;;;2.03;;
15633;SDS011;14654;48.898;8.308;2024-03-17T01:11:50;2.23;;;1.80;;
15633;SDS011;14654;48.898;8.308;2024-03-17T01:14:15;1.97;;;1.83;;
15633;SDS011;14654;48.898;8.308;2024-03-17T01:16:40;2.43;;;1.83;;
15633;SDS011;14654;48.898;8.308;2024-03-17T01:19:06;2.40;;;2.20;;
15633;SDS011;14654;48.898;8.308;2024-03-17T01:21:31;3.00;;;2.67;;
15633;SDS011;14654;48.898;8.308;2024-03-17T01:23:56;3.53;;;2.30;;
15633;SDS011;14654;48.898;8.308;2024-03-17T01:26:22;2.60;;;2.23;;
15633;SDS011;14654;48.898;8.308;2024-03-17T01:28:49;2.60;;;2.03;;
15633;SDS011;14654;48.898;8.308;2024-03-17T01:31:14;2.43;;;2.23;;
15633;SDS011;14654;48.898;8.308;2024-03-17T01:33:39;2.60;;;2.40;;
15633;SDS011;14654;48.898;8.308;2024-03-17T01:36:05;2.53;;;2.30;;
15633;SDS011;14654;48.898;8.308;2024-03-17T01:38:31;2.80;;;2.40;;
15633;SDS011;14654;48.898;8.308;2024-03-17T01:40:57;3.13;;;2.00;;
15633;SDS011;14654;48.898;8.308;2024-03-17T01:43:23;2.30;;;2.10;;
15633;SDS011;14654;48.898;8.308;2024-03-17T01:45:48;2.93;;;2.40;;
15633;SDS011;14654;48.898;8.308;2024-03-17T01:48:14;3.00;;;2.20;;
15633;SDS011;14654;48.898;8.308;2024-03-17T01:50:42;2.53;;;2.30;;
15633;SDS011;14654;48.898;8.308;2024-03-17T01:53:09;2.23;;;2.00;;
15633;SDS011;14654;48.898;8.308;2024-03-17T01:55:36;2.40;;;2.20;;
15633;SDS011;14654;48.898;8.308;2024-03-17T01:58:04;3.30;;;3.00;;
15633;SDS011;14654;48.898;8.308;2024-03-17T02:00:36;2.10;;;1.80;;
15633;SDS011;14654;48.898;8.308;2024-03-17T02:03:03;4.63;;;2.17;;
15633;SDS011;14654;48.898;8.308;2024-03-17T02:05:30;1.90;;;1.70;;
15633;SDS011;14654;48.898;8.308;2024-03-17T02:07:56;2.10;;;1.90;;
15633;SDS011;14654;48.898;8.308;2024-03-17T02:10:21;1.83;;;1.73;;
15633;SDS011;14654;48.898;8.308;2024-03-17T02:12:47;2.23;;;1.90;;
15633;SDS011;14654;48.898;8.308;2024-03-17T02:15:13;2.10;;;1.80;;
15633;SDS011;14654;48.898;8.308;2024-03-17T02:17:39;2.33;;;1.97;;
15633;SDS011;14654;48.898;8.308;2024-03-17T02:20:04;3.27;;;2.50;;
15633;SDS011;14654;48.898;8.308;2024-03-17T02:22:32;4.03;;;2.70;;
15633;SDS011;14654;48.898;8.308;2024-03-17T02:24:59;3.40;;;3.17;;
15633;SDS011;14654;48.898;8.308;2024-03-17T02:27:25;3.80;;;3.40;;
15633;SDS011;14654;48.898;8.308;2024-03-17T02:29:50;5.03;;;4.53;;
15633;SDS011;14654;48.898;8.308;2024-03-17T02:32:15;4.70;;;4.27;;
15633;SDS011;14654;48.898;8.308;2024-03-17T02:34:41;4.87;;;3.97;;
15633;SDS011;14654;48.898;8.308;2024-03-17T02:37:06;4.43;;;4.03;;
15633;SDS011;14654;48.898;8.308;2024-03-17T02:39:32;4.23;;;3.83;;
15633;SDS011;14654;48.898;8.308;2024-03-17T02:42:04;3.70;;;3.40;;
15633;SDS011;14654;48.898;8.308;2024-03-17T02:44:31;3.83;;;3.53;;
15633;SDS011;14654;48.898;8.308;2024-03-17T02:47:01;3.67;;;3.37;;
15633;SDS011;14654;48.898;8.308;2024-03-17T02:49:29;3.73;;;3.43;;
15633;SDS011;14654;48.898;8.308;2024-03-17T02:52:05;3.97;;;3.13;;
15633;SDS011;14654;48.898;8.308;2024-03-17T02:54:39;3.80;;;3.50;;
15633;SDS011;14654;48.898;8.308;2024-03-17T02:57:05;3.30;;;3.00;;
15633;SDS011;14654;48.898;8.308;2024-03-17T02:59:31;4.10;;;3.43;;
15633;SDS011;14654;48.898;8.308;2024-03-17T03:01:58;3.37;;;3.13;;
15633;SDS011;14654;48.898;8.308;2024-03-17T03:04:24;3.90;;;3.43;;
15633;SDS011;14654;48.898;8.308;2024-03-17T03:06:50;4.10;;;3.00;;
15633;SDS011;14654;48.898;8.308;2024-03-17T03:09:15;3.97;;;3.57;;
15633;SDS011;14654;48.898;8.308;2024-03-17T03:11:46;3.67;;;3.37;;
15633;SDS011;14654;48.898;8.308;2024-03-17T03:14:12;3.57;;;3.27;;
15633;SDS011;14654;48.898;8.308;2024-03-17T03:16:37;4.33;;;3.30;;
15633;SDS011;14654;48.898;8.308;2024-03-17T03:19:03;3.97;;;3.67;;
15633;SDS011;14654;48.898;8.308;2024-03-17T03:21:30;3.93;;;3.57;;
15633;SDS011;14654;48.898;8.308;2024-03-17T03:23:56;3.37;;;3.07;;
15633;SDS011;14654;48.898;8.308;2024-03-17T03:26:21;3.83;;;3.53;;
15633;SDS011;14654;48.898;8.308;2024-03-17T03:28:46;3.73;;;3.43;;
15633;SDS011;14654;48.898;8.308;2024-03-17T03:31:12;3.93;;;3.33;;
15633;SDS011;14654;48.898;8.308;2024-03-17T03:33:42;3.27;;;2.97;;
15633;SDS011;14654;48.898;8.308;2024-03-17T03:36:10;2.93;;;2.73;;
15633;SDS011;14654;48.898;8.308;2024-03-17T03:38:37;3.40;;;3.10;;
15633;SDS011;14654;48.898;8.308;2024-03-17T03:41:07;4.07;;;3.43;;
15633;SDS011;14654;48.898;8.308;2024-03-17T03:43:32;4.27;;;3.20;;
15633;SDS011;14654;48.898;8.308;2024-03-17T03:45:58;4.17;;;3.83;;
15633;SDS011;14654;48.898;8.308;2024-03-17T03:48:25;4.67;;;4.23;;
15633;SDS011;14654;48.898;8.308;2024-03-17T03:50:50;3.97;;;3.57;;
15633;SDS011;14654;48.898;8.308;2024-03-17T03:53:15;4.17;;;3.87;;
15633;SDS011;14654;48.898;8.308;2024-03-17T03:55:40;3.20;;;2.90;;
15633;SDS011;14654;48.898;8.308;2024-03-17T03:58:06;3.57;;;2.80;;
15633;SDS011;14654;48.898;8.308;2024-03-17T04:00:32;3.57;;;2.90;;
15633;SDS011;14654;48.898;8.308;2024-03-17T04:02:57;3.37;;;3.10;;
15633;SDS011;14654;48.898;8.308;2024-03-17T04:05:23;3.40;;;3.10;;
15633;SDS011;14654;48.898;8.308;2024-03-17T04:07:49;3.87;;;3.57;;
15633;SDS011;14654;48.898;8.308;2024-03-17T04:10:14;3.33;;;3.07;;
15633;SDS011;14654;48.898;8.308;2024-03-17T04:12:41;3.50;;;3.20;;
15633;SDS011;14654;48.898;8.308;2024-03-17T04:15:07;4.03;;;3.73;;
15633;SDS011;14654;48.898;8.308;2024-03-17T04:17:35;5.10;;;4.37;;
15633;SDS011;14654;48.898;8.308;2024-03-17T04:20:01;4.63;;;4.10;;
15633;SDS011;14654;48.898;8.308;2024-03-17T04:22:26;4.80;;;4.10;;
15633;SDS011;14654;48.898;8.308;2024-03-17T04:24:52;4.50;;;4.20;;
15633;SDS011;14654;48.898;8.308;2024-03-17T04:27:21;5.17;;;3.77;;
15633;SDS011;14654;48.898;8.308;2024-03-17T04:29:52;4.93;;;3.83;;
15633;SDS011;14654;48.898;8.308;2024-03-17T04:32:19;4.10;;;3.70;;
15633;SDS011;14654;48.898;8.308;2024-03-17T04:34:45;3.60;;;3.27;;
15633;SDS011;14654;48.898;8.308;2024-03-17T04:37:10;3.40;;;3.10;;
15633;SDS011;14654;48.898;8.308;2024-03-17T04:39:41;3.53;;;3.20;;
15633;SDS011;14654;48.898;8.308;2024-03-17T04:42:09;2.97;;;2.67;;
15633;SDS011;14654;48.898;8.308;2024-03-17T04:44:36;3.73;;;3.43;;
15633;SDS011;14654;48.898;8.308;2024-03-17T04:47:02;3.40;;;3.10;;
15633;SDS011;14654;48.898;8.308;2024-03-17T04:52:11;3.50;;;3.20;;
15633;SDS011;14654;48.898;8.308;2024-03-17T04:54:37;3.50;;;3.20;;
15633;SDS011;14654;48.898;8.308;2024-03-17T04:57:03;3.77;;;3.37;;
15633;SDS011;14654;48.898;8.308;2024-03-17T04:59:29;3.73;;;3.43;;
15633;SDS011;14654;48.898;8.308;2024-03-17T05:01:54;3.87;;;3.30;;
15633;SDS011;14654;48.898;8.308;2024-03-17T05:04:20;3.40;;;3.10;;
15633;SDS011;14654;48.898;8.308;2024-03-17T05:06:45;4.37;;;3.97;;
15633;SDS011;14654;48.898;8.308;2024-03-17T05:09:15;4.10;;;3.80;;
15633;SDS011;14654;48.898;8.308;2024-03-17T05:11:41;3.97;;;3.67;;
15633;SDS011;14654;48.898;8.308;2024-03-17T05:14:07;4.57;;;4.17;;
15633;SDS011;14654;48.898;8.308;2024-03-17T05:16:32;4.73;;;4.33;;
15633;SDS011;14654;48.898;8.308;2024-03-17T05:18:58;4.27;;;3.97;;
15633;SDS011;14654;48.898;8.308;2024-03-17T05:21:23;5.30;;;3.93;;
15633;SDS011;14654;48.898;8.308;2024-03-17T05:23:49;4.40;;;4.00;;
15633;SDS011;14654;48.898;8.308;2024-03-17T05:26:14;3.90;;;3.50;;
15633;SDS011;14654;48.898;8.308;2024-03-17T05:28:40;4.03;;;3.73;;
15633;SDS011;14654;48.898;8.308;2024-03-17T05:31:05;6.90;;;4.13;;
15633;SDS011;14654;48.898;8.308;2024-03-17T05:33:30;3.87;;;3.47;;
15633;SDS011;14654;48.898;8.308;2024-03-17T05:35:56;4.27;;;3.97;;
15633;SDS011;14654;48.898;8.308;2024-03-17T05:38:23;4.40;;;4.00;;
15633;SDS011;14654;48.898;8.308;2024-03-17T05:40:55;4.00;;;3.70;;
15633;SDS011;14654;48.898;8.308;2024-03-17T05:43:22;4.40;;;4.00;;
15633;SDS011;14654;48.898;8.308;2024-03-17T05:45:49;4.90;;;4.40;;
15633;SDS011;14654;48.898;8.308;2024-03-17T05:48:15;4.20;;;3.90;;
15633;SDS011;14654;48.898;8.308;2024-03-17T05:50:40;4.23;;;3.83;;
15633;SDS011;14654;48.898;8.308;2024-03-17T05:53:06;4.20;;;3.90;;
15633;SDS011;14654;48.898;8.308;2024-03-17T05:55:31;4.13;;;3.73;;
15633;SDS011;14654;48.898;8.308;2024-03-17T05:58:01;3.30;;;3.00;;
15633;SDS011;14654;48.898;8.308;2024-03-17T06:00:26;3.83;;;3.50;;
15633;SDS011;14654;48.898;8.308;2024-03-17T06:02:52;4.37;;;3.70;;
15633;SDS011;14654;48.898;8.308;2024-03-17T06:05:17;4.47;;;3.90;;
15633;SDS011;14654;48.898;8.308;2024-03-17T06:07:42;4.23;;;3.90;;
15633;SDS011;14654;48.898;8.308;2024-03-17T06:10:08;4.17;;;3.77;;
15633;SDS011;14654;48.898;8.308;2024-03-17T06:12:33;4.03;;;3.53;;
15633;SDS011;14654;48.898;8.308;2024-03-17T06:14:59;3.90;;;3.60;;
15633;SDS011;14654;48.898;8.308;2024-03-17T06:17:24;6.10;;;4.37;;
15633;SDS011;14654;48.898;8.308;2024-03-17T06:19:51;4.83;;;4.40;;
15633;SDS011;14654;48.898;8.308;2024-03-17T06:22:17;4.67;;;4.23;;
15633;SDS011;14654;48.898;8.308;2024-03-17T06:24:42;5.10;;;4.60;;
15633;SDS011;14654;48.898;8.308;2024-03-17T06:27:07;4.73;;;4.33;;
15633;SDS011;14654;48.898;8.308;2024-03-17T06:29:33;4.73;;;4.43;;
15633;SDS011;14654;48.898;8.308;2024-03-17T06:31:58;4.67;;;4.27;;
15633;SDS011;14654;48.898;8.308;2024-03-17T06:34:25;4.93;;;4.53;;
15633;SDS011;14654;48.898;8.308;2024-03-17T06:36:50;4.77;;;4.23;;
15633;SDS011;14654;48.898;8.308;2024-03-17T06:39:15;4.80;;;4.40;;
15633;SDS011;14654;48.898;8.308;2024-03-17T06:41:42;4.57;;;4.00;;
15633;SDS011;14654;48.898;8.308;2024-03-17T06:44:07;4.07;;;3.67;;
15633;SDS011;14654;48.898;8.308;2024-03-17T06:46:33;5.00;;;4.10;;
15633;SDS011;14654;48.898;8.308;2024-03-17T06:48:58;3.93;;;3.63;;
15633;SDS011;14654;48.898;8.308;2024-03-17T06:51:24;4.20;;;3.90;;
15633;SDS011;14654;48.898;8.308;2024-03-17T06:53:50;4.23;;;3.93;;
15633;SDS011;14654;48.898;8.308;2024-03-17T06:56:15;4.20;;;3.90;;
15633;SDS011;14654;48.898;8.308;2024-03-17T06:58:40;4.80;;;4.20;;
15633;SDS011;14654;48.898;8.308;2024-03-17T07:01:06;4.63;;;4.23;;
15633;SDS011;14654;48.898;8.308;2024-03-17T07:03:32;4.33;;;4.03;;
15633;SDS011;14654;48.898;8.308;2024-03-17T07:05:58;4.03;;;3.73;;
15633;SDS011;14654;48.898;8.308;2024-03-17T07:08:27;4.67;;;4.27;;
15633;SDS011;14654;48.898;8.308;2024-03-17T07:13:31;4.50;;;4.10;;
15633;SDS011;14654;48.898;8.308;2024-03-17T07:15:58;4.80;;;3.97;;
15633;SDS011;14654;48.898;8.308;2024-03-17T07:18:27;4.63;;;4.23;;
15633;SDS011;14654;48.898;8.308;2024-03-17T07:20:53;4.60;;;4.17;;
15633;SDS011;14654;48.898;8.308;2024-03-17T07:23:22;4.80;;;4.33;;
15633;SDS011;14654;48.898;8.308;2024-03-17T07:25:54;4.67;;;4.27;;
15633;SDS011;14654;48.898;8.308;2024-03-17T07:28:24;4.80;;;4.40;;
15633;SDS011;14654;48.898;8.308;2024-03-17T07:30:50;5.13;;;4.70;;
15633;SDS011;14654;48.898;8.308;2024-03-17T07:33:20;6.13;;;5.53;;
15633;SDS011;14654;48.898;8.308;2024-03-17T07:35:47;6.40;;;5.80;;
15633;SDS011;14654;48.898;8.308;2024-03-17T07:38:16;6.13;;;5.53;;
15633;SDS011;14654;48.898;8.308;2024-03-17T07:40:43;5.67;;;5.27;;
15633;SDS011;14654;48.898;8.308;2024-03-17T07:43:10;7.10;;;5.20;;
15633;SDS011;14654;48.898;8.308;2024-03-17T07:45:35;6.20;;;5.60;;
15633;SDS011;14654;48.898;8.308;2024-03-17T07:48:00;6.90;;;6.40;;
15633;SDS011;14654;48.898;8.308;2024-03-17T07:50:26;6.70;;;6.10;;
15633;SDS011;14654;48.898;8.308;2024-03-17T07:52:51;5.83;;;5.33;;
15633;SDS011;14654;48.898;8.308;2024-03-17T07:55:17;5.47;;;5.07;;
15633;SDS011;14654;48.898;8.308;2024-03-17T07:57:42;5.23;;;4.83;;
15633;SDS011;14654;48.898;8.308;2024-03-17T08:00:08;5.00;;;4.53;;
15633;SDS011;14654;48.898;8.308;2024-03-17T08:02:45;5.13;;;4.73;;
15633;SDS011;14654;48.898;8.308;2024-03-17T08:05:11;5.27;;;4.87;;
15633;SDS011;14654;48.898;8.308;2024-03-17T08:07:36;5.47;;;4.97;;
15633;SDS011;14654;48.898;8.308;2024-03-17T08:10:02;4.97;;;4.57;;
15633;SDS011;14654;48.898;8.308;2024-03-17T08:12:31;5.07;;;4.67;;
15633;SDS011;14654;48.898;8.308;2024-03-17T08:14:56;4.93;;;4.47;;
15633;SDS011;14654;48.898;8.308;2024-03-17T08:17:21;5.10;;;4.70;;
15633;SDS011;14654;48.898;8.308;2024-03-17T08:19:47;5.63;;;5.23;;
15633;SDS011;14654;48.898;8.308;2024-03-17T08:22:12;5.63;;;5.10;;
15633;SDS011;14654;48.898;8.308;2024-03-17T08:24:38;5.87;;;5.37;;
15633;SDS011;14654;48.898;8.308;2024-03-17T08:27:04;5.27;;;4.80;;
15633;SDS011;14654;48.898;8.308;2024-03-17T08:29:29;6.13;;;5.60;;
15633;SDS011;14654;48.898;8.308;2024-03-17T08:31:55;5.43;;;4.27;;
15633;SDS011;14654;48.898;8.308;2024-03-17T08:34:20;6.87;;;6.20;;
15633;SDS011;14654;48.898;8.308;2024-03-17T08:36:45;6.50;;;5.90;;
15633;SDS011;14654;48.898;8.308;2024-03-17T08:39:11;6.13;;;5.20;;
15633;SDS011;14654;48.898;8.308;2024-03-17T08:41:36;5.90;;;5.40;;
15633;SDS011;14654;48.898;8.308;2024-03-17T08:44:02;6.20;;;5.70;;
15633;SDS011;14654;48.898;8.308;2024-03-17T08:46:27;5.90;;;5.50;;
15633;SDS011;14654;48.898;8.308;2024-03-17T08:48:52;5.77;;;5.33;;
15633;SDS011;14654;48.898;8.308;2024-03-17T08:51:18;5.17;;;4.77;;
15633;SDS011;14654;48.898;8.308;2024-03-17T08:53:43;6.23;;;5.70;;
15633;SDS011;14654;48.898;8.308;2024-03-17T08:56:09;5.40;;;4.90;;
15633;SDS011;14654;48.898;8.308;2024-03-17T08:58:34;5.43;;;4.93;;
15633;SDS011;14654;48.898;8.308;2024-03-17T09:01:03;5.43;;;5.00;;
15633;SDS011;14654;48.898;8.308;2024-03-17T09:03:30;5.77;;;5.27;;
15633;SDS011;14654;48.898;8.308;2024-03-17T09:05:55;5.90;;;5.47;;
15633;SDS011;14654;48.898;8.308;2024-03-17T09:08:21;5.30;;;4.80;;
15633;SDS011;14654;48.898;8.308;2024-03-17T09:10:49;4.80;;;4.40;;
15633;SDS011;14654;48.898;8.308;2024-03-17T09:13:19;5.17;;;4.70;;
15633;SDS011;14654;48.898;8.308;2024-03-17T09:18:21;5.20;;;4.80;;
15633;SDS011;14654;48.898;8.308;2024-03-17T09:20:54;5.73;;;5.33;;
15633;SDS011;14654;48.898;8.308;2024-03-17T09:23:23;5.73;;;5.30;;
15633;SDS011;14654;48.898;8.308;2024-03-17T09:25:56;6.07;;;5.47;;
15633;SDS011;14654;48.898;8.308;2024-03-17T09:28:22;6.27;;;5.77;;
15633;SDS011;14654;48.898;8.308;2024-03-17T09:30:48;5.30;;;4.90;;
15633;SDS011;14654;48.898;8.308;2024-03-17T09:33:13;5.13;;;4.73;;
15633;SDS011;14654;48.898;8.308;2024-03-17T09:35:39;5.20;;;4.80;;
15633;SDS011;14654;48.898;8.308;2024-03-17T09:38:04;5.17;;;4.70;;
15633;SDS011;14654;48.898;8.308;2024-03-17T09:40:29;4.80;;;4.40;;
15633;SDS011;14654;48.898;8.308;2024-03-17T09:42:55;5.20;;;4.70;;
15633;SDS011;14654;48.898;8.308;2024-03-17T09:45:21;4.87;;;4.37;;
15633;SDS011;14654;48.898;8.308;2024-03-17T09:47:49;5.00;;;4.50;;
15633;SDS011;14654;48.898;8.308;2024-03-17T09:50:16;5.17;;;4.63;;
15633;SDS011;14654;48.898;8.308;2024-03-17T09:52:44;5.03;;;4.63;;
15633;SDS011;14654;48.898;8.308;2024-03-17T09:55:19;4.50;;;4.13;;
15633;SDS011;14654;48.898;8.308;2024-03-17T09:57:45;4.80;;;4.40;;
15633;SDS011;14654;48.898;8.308;2024-03-17T10:00:13;4.40;;;4.10;;
15633;SDS011;14654;48.898;8.308;2024-03-17T10:05:19;3.73;;;3.47;;
15633;SDS011;14654;48.898;8.308;2024-03-17T10:07:46;4.40;;;4.10;;
15633;SDS011;14654;48.898;8.308;2024-03-17T10:10:12;4.53;;;4.20;;
15633;SDS011;14654;48.898;8.308;2024-03-17T10:12:38;4.10;;;3.80;;
15633;SDS011;14654;48.898;8.308;2024-03-17T10:15:03;4.43;;;4.03;;
15633;SDS011;14654;48.898;8.308;2024-03-17T10:17:30;4.63;;;4.30;;
15633;SDS011;14654;48.898;8.308;2024-03-17T10:22:40;4.07;;;3.73;;
15633;SDS011;14654;48.898;8.308;2024-03-17T10:25:40;4.87;;;3.80;;
15633;SDS011;14654;48.898;8.308;2024-03-17T10:28:12;4.90;;;3.47;;
15633;SDS011;14654;48.898;8.308;2024-03-17T10:30:38;4.23;;;3.83;;
15633;SDS011;14654;48.898;8.308;2024-03-17T10:33:04;4.43;;;4.13;;
15633;SDS011;14654;48.898;8.308;2024-03-17T10:35:34;4.63;;;3.90;;
15633;SDS011;14654;48.898;8.308;2024-03-17T10:38:04;4.10;;;3.70;;
15633;SDS011;14654;48.898;8.308;2024-03-17T10:40:31;4.03;;;3.70;;
15633;SDS011;14654;48.898;8.308;2024-03-17T10:43:00;4.03;;;3.73;;
15633;SDS011;14654;48.898;8.308;2024-03-17T10:45:26;3.90;;;3.60;;
15633;SDS011;14654;48.898;8.308;2024-03-17T10:47:55;5.40;;;5.00;;
15633;SDS011;14654;48.898;8.308;2024-03-17T10:50:25;5.07;;;4.67;;
15633;SDS011;14654;48.898;8.308;2024-03-17T10:52:55;4.27;;;3.87;;
15633;SDS011;14654;48.898;8.308;2024-03-17T10:55:24;4.37;;;4.07;;
15633;SDS011;14654;48.898;8.308;2024-03-17T10:57:51;4.80;;;4.40;;
15633;SDS011;14654;48.898;8.308;2024-03-17T11:00:18;4.70;;;4.30;;
15633;SDS011;14654;48.898;8.308;2024-03-17T11:02:46;4.57;;;4.17;;
15633;SDS011;14654;48.898;8.308;2024-03-17T11:07:41;3.83;;;3.53;;
15633;SDS011;14654;48.898;8.308;2024-03-17T11:10:12;4.37;;;3.97;;
15633;SDS011;14654;48.898;8.308;2024-03-17T11:12:48;4.53;;;4.13;;
15633;SDS011;14654;48.898;8.308;2024-03-17T11:17:55;4.33;;;4.03;;
15633;SDS011;14654;48.898;8.308;2024-03-17T11:20:41;4.13;;;3.30;;
15633;SDS011;14654;48.898;8.308;2024-03-17T11:23:08;3.80;;;3.50;;
15633;SDS011;14654;48.898;8.308;2024-03-17T11:25:39;3.70;;;3.40;;
15633;SDS011;14654;48.898;8.308;2024-03-17T11:28:07;3.83;;;3.43;;
15633;SDS011;14654;48.898;8.308;2024-03-17T11:51:57;3.40;;;3.10;;
15633;SDS011;14654;48.898;8.308;2024-03-17T11:54:25;4.03;;;3.63;;
15633;SDS011;14654;48.898;8.308;2024-03-17T11:56:55;3.90;;;3.60;;
15633;SDS011;14654;48.898;8.308;2024-03-17T11:59:25;4.47;;;4.07;;
15633;SDS011;14654;48.898;8.308;2024-03-17T12:01:50;3.20;;;3.00;;
15633;SDS011;14654;48.898;8.308;2024-03-17T12:04:17;4.17;;;3.23;;
15633;SDS011;14654;48.898;8.308;2024-03-17T12:06:46;4.17;;;3.77;;
15633;SDS011;14654;48.898;8.308;2024-03-17T12:09:23;3.70;;;3.40;;
15633;SDS011;14654;48.898;8.308;2024-03-17T12:11:50;3.53;;;3.23;;
15633;SDS011;14654;48.898;8.308;2024-03-17T12:14:24;4.40;;;3.50;;
15633;SDS011;14654;48.898;8.308;2024-03-17T12:16:53;3.50;;;3.20;;
15633;SDS011;14654;48.898;8.308;2024-03-17T12:19:24;3.80;;;3.50;;
15633;SDS011;14654;48.898;8.308;2024-03-17T12:21:51;3.93;;;3.40;;
15633;SDS011;14654;48.898;8.308;2024-03-17T12:24:23;4.40;;;3.50;;
15633;SDS011;14654;48.898;8.308;2024-03-17T12:26:51;3.47;;;3.17;;
15633;SDS011;14654;48.898;8.308;2024-03-17T12:32:01;4.23;;;3.07;;
15633;SDS011;14654;48.898;8.308;2024-03-17T12:34:28;3.37;;;3.10;;
15633;SDS011;14654;48.898;8.308;2024-03-17T12:36:55;3.87;;;3.30;;
15633;SDS011;14654;48.898;8.308;2024-03-17T12:39:23;3.13;;;2.93;;
15633;SDS011;14654;48.898;8.308;2024-03-17T12:47:21;2.97;;;2.73;;
15633;SDS011;14654;48.898;8.308;2024-03-17T12:49:51;3.50;;;3.13;;
15633;SDS011;14654;48.898;8.308;2024-03-17T12:54:58;2.83;;;2.63;;
15633;SDS011;14654;48.898;8.308;2024-03-17T12:57:46;4.20;;;3.90;;
15633;SDS011;14654;48.898;8.308;2024-03-17T13:00:31;3.70;;;3.10;;
15633;SDS011;14654;48.898;8.308;2024-03-17T13:02:57;3.23;;;2.53;;
15633;SDS011;14654;48.898;8.308;2024-03-17T13:05:23;3.47;;;2.77;;
15633;SDS011;14654;48.898;8.308;2024-03-17T13:07:48;3.47;;;2.50;;
15633;SDS011;14654;48.898;8.308;2024-03-17T13:10:19;4.37;;;2.50;;
15633;SDS011;14654;48.898;8.308;2024-03-17T13:12:47;3.77;;;2.77;;
15633;SDS011;14654;48.898;8.308;2024-03-17T13:15:17;3.27;;;3.03;;
15633;SDS011;14654;48.898;8.308;2024-03-17T13:17:45;2.40;;;2.20;;
15633;SDS011;14654;48.898;8.308;2024-03-17T13:20:14;2.83;;;2.57;;
15633;SDS011;14654;48.898;8.308;2024-03-17T13:22:44;2.93;;;2.63;;
15633;SDS011;14654;48.898;8.308;2024-03-17T13:25:22;3.10;;;2.53;;
15633;SDS011;14654;48.898;8.308;2024-03-17T13:27:51;3.73;;;2.50;;
15633;SDS011;14654;48.898;8.308;2024-03-17T13:30:18;2.67;;;2.20;;
15633;SDS011;14654;48.898;8.308;2024-03-17T13:32:47;3.13;;;2.47;;
15633;SDS011;14654;48.898;8.308;2024-03-17T13:35:17;3.67;;;2.57;;
15633;SDS011;14654;48.898;8.308;2024-03-17T13:37:46;3.37;;;2.10;;
15633;SDS011;14654;48.898;8.308;2024-03-17T13:40:13;2.20;;;2.00;;
15633;SDS011;14654;48.898;8.308;2024-03-17T13:42:44;2.33;;;2.13;;
15633;SDS011;14654;48.898;8.308;2024-03-17T13:45:12;2.33;;;1.97;;
15633;SDS011;14654;48.898;8.308;2024-03-17T13:47:39;2.60;;;2.00;;
15633;SDS011;14654;48.898;8.308;2024-03-17T13:50:05;2.03;;;1.80;;
15633;SDS011;14654;48.898;8.308;2024-03-17T13:52:35;1.83;;;1.70;;
15633;SDS011;14654;48.898;8.308;2024-03-17T13:55:14;2.57;;;1.87;;
15633;SDS011;14654;48.898;8.308;2024-03-17T13:57:43;2.13;;;1.53;;
15633;SDS011;14654;48.898;8.308;2024-03-17T14:00:10;1.97;;;1.83;;
15633;SDS011;14654;48.898;8.308;2024-03-17T14:02:40;2.90;;;1.80;;
15633;SDS011;14654;48.898;8.308;2024-03-17T14:05:05;2.77;;;1.50;;
15633;SDS011;14654;48.898;8.308;2024-03-17T14:07:32;2.23;;;1.77;;
15633;SDS011;14654;48.898;8.308;2024-03-17T14:09:58;5.00;;;1.90;;
15633;SDS011;14654;48.898;8.308;2024-03-17T14:12:23;3.13;;;2.03;;
15633;SDS011;14654;48.898;8.308;2024-03-17T14:14:51;1.97;;;1.53;;
15633;SDS011;14654;48.898;8.308;2024-03-17T14:17:16;2.13;;;1.93;;
15633;SDS011;14654;48.898;8.308;2024-03-17T14:19:41;3.47;;;2.00;;
15633;SDS011;14654;48.898;8.308;2024-03-17T14:22:07;2.80;;;2.00;;
15633;SDS011;14654;48.898;8.308;2024-03-17T14:24:32;1.97;;;1.70;;
15633;SDS011;14654;48.898;8.308;2024-03-17T14:26:57;2.23;;;1.73;;
15633;SDS011;14654;48.898;8.308;2024-03-17T14:29:23;2.17;;;1.93;;
15633;SDS011;14654;48.898;8.308;2024-03-17T14:31:48;2.17;;;1.77;;
15633;SDS011;14654;48.898;8.308;2024-03-17T14:34:13;2.00;;;1.80;;
15633;SDS011;14654;48.898;8.308;2024-03-17T14:36:39;2.17;;;1.73;;
15633;SDS011;14654;48.898;8.308;2024-03-17T14:39:04;2.50;;;2.07;;
15633;SDS011;14654;48.898;8.308;2024-03-17T14:41:30;2.50;;;1.67;;
15633;SDS011;14654;48.898;8.308;2024-03-17T14:43:56;1.50;;;1.40;;
15633;SDS011;14654;48.898;8.308;2024-03-17T14:46:22;1.87;;;1.47;;
15633;SDS011;14654;48.898;8.308;2024-03-17T14:48:48;2.00;;;1.60;;
15633;SDS011;14654;48.898;8.308;2024-03-17T14:51:15;1.90;;;1.70;;
15633;SDS011;14654;48.898;8.308;2024-03-17T14:53:42;1.73;;;1.60;;
15633;SDS011;14654;48.898;8.308;2024-03-17T14:56:13;3.47;;;2.27;;
15633;SDS011;14654;48.898;8.308;2024-03-17T14:58:39;2.20;;;1.90;;
15633;SDS011;14654;48.898;8.308;2024-03-17T15:01:05;2.07;;;1.83;;
15633;SDS011;14654;48.898;8.308;2024-03-17T15:03:30;2.00;;;1.80;;
15633;SDS011;14654;48.898;8.308;2024-03-17T15:05:55;1.90;;;1.40;;
15633;SDS011;14654;48.898;8.308;2024-03-17T15:08:20;1.97;;;1.60;;
15633;SDS011;14654;48.898;8.308;2024-03-17T15:10:46;1.73;;;1.43;;
15633;SDS011;14654;48.898;8.308;2024-03-17T15:13:11;1.77;;;1.57;;
15633;SDS011;14654;48.898;8.308;2024-03-17T15:15:39;1.70;;;1.60;;
15633;SDS011;14654;48.898;8.308;2024-03-17T15:18:05;1.90;;;1.80;;
15633;SDS011;14654;48.898;8.308;2024-03-17T15:20:30;2.43;;;1.60;;
15633;SDS011;14654;48.898;8.308;2024-03-17T15:22:56;2.10;;;1.90;;
15633;SDS011;14654;48.898;8.308;2024-03-17T15:25:22;1.70;;;1.50;;
15633;SDS011;14654;48.898;8.308;2024-03-17T15:27:50;2.43;;;1.83;;
15633;SDS011;14654;48.898;8.308;2024-03-17T15:30:16;1.57;;;1.30;;
15633;SDS011;14654;48.898;8.308;2024-03-17T15:32:47;2.90;;;1.67;;
15633;SDS011;14654;48.898;8.308;2024-03-17T15:35:13;3.03;;;2.10;;
15633;SDS011;14654;48.898;8.308;2024-03-17T15:37:39;3.20;;;2.10;;